Time;durP1;ratioP1;P1;durP2;ratioP2;P2;SDS_P1;SDS_P2;PMS_P1;PMS_P2;Temp;Humidity;BMP_temperature;BMP_pressure;BME280_temperature;BME280_humidity;BME280_pressure;Samples;Min_cycle;Max_cycle;Signal;HPM_P1;HPM_P2
2021/10/01 00:00:07;;;;;;;9.50;3.78;;;15.00;99.90;;;15.28;66.88;101604.19;4916836;29;20152;-76
2021/10/01 00:02:36;;;;;;;7.18;4.60;;;15.10;99.90;;;15.30;67.14;101588.16;4917241;29;20048;-74
2021/10/01 00:05:06;;;;;;;9.65;4.15;;;15.00;99.90;;;15.27;67.16;101582.88;4917031;29;20407;-74
2021/10/01 00:07:34;;;;;;;9.68;4.88;;;15.00;99.90;;;15.27;66.87;101591.72;4917038;29;20498;-76
2021/10/01 00:10:03;;;;;;;8.40;4.13;;;15.00;99.90;;;15.24;66.92;101578.47;4916691;29;20048;-74
2021/10/01 00:12:34;;;;;;;7.55;4.00;;;15.00;99.90;;;15.30;67.06;101578.38;4916780;29;20096;-74
2021/10/01 00:15:02;;;;;;;9.93;4.57;;;15.00;99.90;;;15.26;67.60;101571.31;4916692;29;20127;-74
2021/10/01 00:17:31;;;;;;;7.32;4.55;;;15.00;99.90;;;15.24;67.86;101591.78;4916439;29;20044;-75
2021/10/01 00:20:01;;;;;;;12.75;5.20;;;15.00;99.90;;;15.27;67.88;101581.06;4916046;29;20498;-75
2021/10/01 00:22:30;;;;;;;10.02;4.53;;;14.90;99.90;;;15.32;68.27;101579.25;4916540;29;20087;-74
2021/10/01 00:24:58;;;;;;;9.50;4.45;;;15.00;99.90;;;15.21;68.49;101573.16;4916416;29;20039;-74
2021/10/01 00:27:27;;;;;;;8.95;4.22;;;15.00;99.90;;;15.05;68.28;101582.25;4916252;29;20569;-75
2021/10/01 00:29:57;;;;;;;8.93;4.10;;;14.90;99.90;;;15.18;68.79;101561.66;4930952;29;20058;-74
2021/10/01 00:32:25;;;;;;;10.50;4.10;;;14.90;99.90;;;15.13;68.98;101584.81;4916456;29;20075;-74
2021/10/01 00:34:53;;;;;;;13.27;4.50;;;14.90;99.90;;;15.19;69.16;101584.75;4914949;29;20142;-75
2021/10/01 00:37:22;;;;;;;10.38;4.50;;;14.90;99.90;;;15.16;69.49;101566.09;4914892;29;20063;-74
2021/10/01 00:39:53;;;;;;;9.82;3.92;;;14.90;99.90;;;15.17;69.79;101562.56;4916158;29;20124;-74
2021/10/01 00:42:21;;;;;;;10.33;4.30;;;14.90;99.90;;;15.14;70.02;101552.81;4916137;29;20099;-75
2021/10/01 00:44:50;;;;;;;14.57;4.47;;;14.90;99.90;;;15.14;70.20;101563.47;4914791;29;20095;-75
2021/10/01 00:47:19;;;;;;;13.50;4.32;;;14.90;99.90;;;15.16;69.79;101559.00;4916308;29;20052;-74
2021/10/01 00:49:48;;;;;;;10.13;4.33;;;14.90;99.90;;;15.01;69.89;101527.22;4916195;29;20071;-74
2021/10/01 00:52:19;;;;;;;10.02;4.18;;;14.90;99.90;;;15.15;70.07;101543.03;4916009;29;20296;-74
2021/10/01 00:54:48;;;;;;;11.32;4.13;;;14.90;99.90;;;15.13;70.12;101548.41;4914968;29;20470;-74
2021/10/01 00:57:17;;;;;;;7.82;4.35;;;14.90;99.90;;;15.16;69.71;101543.00;4915953;29;20071;-75
2021/10/01 00:59:45;;;;;;;12.18;4.57;;;14.90;99.90;;;15.19;69.51;101536.78;4916089;29;20052;-75
2021/10/01 01:02:14;;;;;;;9.55;4.25;;;14.90;99.90;;;15.16;69.18;101528.78;4930484;29;20087;-74
2021/10/01 01:04:46;;;;;;;11.70;4.32;;;14.90;99.90;;;15.16;69.19;101537.69;4915882;29;20052;-75
2021/10/01 01:07:23;;;;;;;14.73;4.93;;;14.90;99.90;;;15.22;68.90;101540.28;4915891;29;20048;-74
2021/10/01 01:10:00;;;;;;;13.55;4.38;;;14.90;99.90;;;15.28;68.80;101533.97;4914686;29;20066;-74
2021/10/01 01:12:40;;;;;;;14.88;4.72;;;15.00;99.90;;;15.22;68.48;101542.94;4914563;29;20052;-75
2021/10/01 01:15:13;;;;;;;12.85;4.15;;;14.90;99.90;;;15.29;68.18;101528.63;4914427;29;20395;-75
2021/10/01 01:17:45;;;;;;;10.45;4.00;;;15.00;99.90;;;15.32;68.14;101533.03;4914704;29;20478;-75
2021/10/01 01:20:21;;;;;;;9.30;4.25;;;15.00;99.90;;;15.29;67.96;101546.44;4914631;29;20075;-74
2021/10/01 01:23:16;;;;;;;12.75;4.03;;;15.00;99.90;;;15.34;67.81;101532.13;4930387;29;20059;-74
2021/10/01 01:25:55;;;;;;;8.43;4.05;;;15.10;99.90;;;15.42;67.78;101529.38;4914358;29;20060;-75
2021/10/01 01:28:43;;;;;;;9.68;4.47;;;15.10;99.90;;;15.41;67.48;101526.72;4914567;29;20052;-75
2021/10/01 01:31:24;;;;;;;8.80;4.50;;;15.20;99.90;;;15.38;67.47;101533.84;4933491;29;20408;-75
2021/10/01 01:33:58;;;;;;;7.80;4.30;;;15.10;99.90;;;15.36;67.42;101517.00;4919594;29;20127;-74
2021/10/01 01:36:28;;;;;;;11.57;4.38;;;15.10;99.90;;;15.39;67.63;101519.59;4918368;29;20430;-75
2021/10/01 01:38:58;;;;;;;10.63;4.75;;;15.10;99.90;;;15.46;67.75;101508.91;4919321;29;20067;-73
2021/10/01 01:41:27;;;;;;;11.37;4.17;;;15.20;99.90;;;15.43;67.65;101504.47;4919685;29;20112;-74
2021/10/01 01:43:58;;;;;;;8.20;4.15;;;15.10;99.90;;;15.30;67.89;101510.84;4918104;29;20304;-75
2021/10/01 01:46:27;;;;;;;;;;;15.10;99.90;;;15.44;67.71;101505.38;4934404;29;20478;-74
2021/10/01 01:49:08;;;;;;;9.10;4.70;;;15.10;99.90;;;15.38;67.65;101491.19;4934337;29;20013;-75
2021/10/01 01:51:37;;;;;;;10.75;4.68;;;15.10;99.90;;;15.41;67.75;101492.06;4918227;29;20065;-74
2021/10/01 01:54:06;;;;;;;7.75;4.00;;;15.10;99.90;;;15.42;67.55;101502.72;4934003;29;20048;-74
2021/10/01 01:56:36;;;;;;;9.68;4.55;;;15.10;99.90;;;15.30;67.35;101458.44;4933792;29;20048;-74
2021/10/01 01:59:06;;;;;;;7.72;4.32;;;15.10;99.90;;;15.46;67.54;101487.56;4919138;29;20406;-74
2021/10/01 02:01:41;;;;;;;11.00;4.47;;;15.10;99.90;;;15.37;67.52;101470.75;4918050;29;20044;-74
2021/10/01 02:04:18;;;;;;;10.68;4.43;;;15.10;99.90;;;15.29;67.52;101472.66;4917993;29;20520;-73
2021/10/01 02:06:49;;;;;;;14.55;3.90;;;15.00;99.90;;;14.71;67.09;101375.75;4933751;29;20457;-74
2021/10/01 02:09:18;;;;;;;9.93;4.43;;;15.10;99.90;;;15.31;67.38;101476.16;4917875;29;20172;-74
2021/10/01 02:11:48;;;;;;;11.00;4.27;;;15.00;99.90;;;15.36;67.27;101471.69;4919286;29;20051;-76
2021/10/01 02:14:20;;;;;;;;;;;15.10;99.90;;;15.37;67.33;101472.53;4934423;29;20056;-74
2021/10/01 02:16:51;;;;;;;10.75;4.80;;;15.10;99.90;;;15.29;67.36;101469.13;4933856;29;19923;-75
2021/10/01 02:19:24;;;;;;;8.63;4.13;;;15.00;99.90;;;15.34;67.40;101459.25;4933564;29;20056;-73
2021/10/01 02:21:54;;;;;;;10.95;4.53;;;15.00;99.90;;;15.37;67.46;101457.44;4918914;29;20107;-75
2021/10/01 02:24:28;;;;;;;11.30;5.03;;;15.10;99.90;;;15.43;67.26;101442.31;4933087;29;20048;-75
2021/10/01 02:27:07;;;;;;;9.02;4.40;;;15.10;99.90;;;15.39;67.09;101446.72;4933361;29;20056;-76
2021/10/01 02:29:48;;;;;;;9.57;4.38;;;15.10;99.90;;;15.42;67.37;101437.84;4917319;29;20052;-74
2021/10/01 02:32:31;;;;;;;11.20;4.60;;;15.10;99.90;;;15.39;67.52;101430.75;4918626;29;20119;-73
2021/10/01 02:35:03;;;;;;;8.95;4.35;;;15.10;99.90;;;15.41;67.28;101428.06;4918791;29;20141;-73
2021/10/01 02:37:32;;;;;;;8.38;3.90;;;15.10;99.90;;;15.39;67.47;101417.41;4933095;29;20052;-73
2021/10/01 02:40:02;;;;;;;9.13;4.30;;;15.10;99.90;;;15.40;67.49;101416.53;4916906;29;20059;-74
2021/10/01 02:42:32;;;;;;;7.72;3.97;;;15.10;99.90;;;15.35;67.49;101407.69;4916475;29;20083;-74
2021/10/01 02:45:01;;;;;;;6.43;3.85;;;15.10;99.90;;;15.26;67.44;101389.19;4918371;29;20498;-74
2021/10/01 02:47:33;;;;;;;9.52;3.90;;;15.00;99.90;;;15.37;67.60;101393.44;4917222;29;20063;-73
2021/10/01 02:50:08;;;;;;;8.90;4.50;;;15.10;99.90;;;15.46;67.62;101388.91;4933332;29;20056;-75
2021/10/01 02:52:46;;;;;;;8.20;4.35;;;15.20;99.90;;;15.39;67.70;101391.63;4916924;29;20151;-74
2021/10/01 02:55:32;;;;;;;9.52;4.32;;;15.10;99.90;;;15.36;67.92;101369.47;4916658;29;20052;-74
2021/10/01 02:58:09;;;;;;;13.13;4.70;;;15.10;99.90;;;15.35;68.02;101373.94;4918126;29;20127;-74
2021/10/01 03:00:38;;;;;;;10.27;4.95;;;15.10;99.90;;;15.25;68.02;101377.63;4916813;29;20544;-73
2021/10/01 03:03:12;;;;;;;8.57;4.38;;;15.00;99.90;;;15.31;68.15;101363.38;4932421;29;20052;-73
2021/10/01 03:05:43;;;;;;;6.70;3.90;;;15.00;99.90;;;15.25;68.13;101355.47;4916570;29;20056;-74
2021/10/01 03:08:16;;;;;;;11.80;4.55;;;15.00;99.90;;;15.13;68.53;101355.63;4918023;29;20064;-73
2021/10/01 03:10:49;;;;;;;8.13;4.10;;;14.90;99.90;;;15.10;68.91;101361.88;4916625;29;20044;-73
2021/10/01 03:13:21;;;;;;;9.13;3.83;;;14.80;99.90;;;14.67;68.98;101310.16;4917883;29;20076;-73
2021/10/01 03:15:52;;;;;;;8.13;4.10;;;14.80;99.90;;;15.02;69.04;101354.94;4932509;29;20144;-74
2021/10/01 03:18:22;;;;;;;7.82;3.85;;;14.80;99.90;;;15.04;68.86;101375.28;4916216;29;20405;-74
2021/10/01 03:20:52;;;;;;;8.25;4.38;;;14.70;99.90;;;15.03;69.29;101370.00;4917788;29;20066;-74
2021/10/01 03:23:22;;;;;;;9.00;4.20;;;14.70;99.90;;;14.99;69.45;101353.19;4917665;29;20056;-74
2021/10/01 03:25:53;;;;;;;10.25;4.78;;;14.70;99.90;;;14.97;69.33;101349.66;4932165;29;20052;-75
2021/10/01 03:28:23;;;;;;;9.23;4.45;;;14.70;99.90;;;14.96;69.58;101336.38;4916102;29;20155;-73
2021/10/01 03:30:52;;;;;;;8.07;4.20;;;14.70;99.90;;;14.79;69.79;101330.41;4917261;29;20446;-73
2021/10/01 03:33:27;;;;;;;6.20;3.65;;;14.60;99.90;;;14.78;69.97;101345.50;4932028;29;20140;-73
2021/10/01 03:35:57;;;;;;;7.03;3.85;;;14.50;99.90;;;14.78;70.00;101329.53;4916185;29;20063;-74
2021/10/01 03:38:26;;;;;;;9.30;4.53;;;14.60;99.90;;;14.82;70.25;101328.56;4915923;29;20108;-74
2021/10/01 03:41:00;;;;;;;9.20;4.25;;;14.60;99.90;;;14.70;70.31;101320.75;4916028;29;20052;-73
2021/10/01 03:43:29;;;;;;;5.93;4.28;;;14.50;99.90;;;14.39;70.30;101275.03;4916065;29;20078;-72
2021/10/01 03:45:58;;;;;;;8.60;4.38;;;14.40;99.90;;;14.62;70.76;101313.75;4931816;29;20442;-73
2021/10/01 03:48:28;;;;;;;8.15;4.13;;;14.40;99.90;;;14.64;70.57;101311.97;4931609;29;20509;-73
2021/10/01 03:51:08;;;;;;;10.15;4.93;;;14.40;99.90;;;14.60;70.53;101311.13;4917184;29;20044;-73
2021/10/01 03:53:38;;;;;;;9.05;4.20;;;14.40;99.90;;;14.60;70.76;101318.22;4931494;29;20063;-73
2021/10/01 03:56:15;;;;;;;8.32;4.82;;;14.30;99.90;;;14.46;70.51;101283.81;4931677;29;20506;-73
2021/10/01 03:58:45;;;;;;;7.78;4.13;;;14.40;99.90;;;14.68;70.40;101329.66;4916801;29;20435;-74
2021/10/01 04:01:14;;;;;;;7.65;4.55;;;14.40;99.90;;;14.59;70.50;101317.38;4931457;29;20099;-74
2021/10/01 04:03:43;;;;;;;8.38;4.20;;;14.40;99.90;;;14.65;70.27;101319.06;4915481;29;20052;-73
2021/10/01 04:06:16;;;;;;;10.30;4.35;;;14.40;99.90;;;14.67;70.45;101302.16;4915407;29;20040;-73
2021/10/01 04:08:46;;;;;;;10.07;4.32;;;14.40;99.90;;;14.69;70.11;101310.13;4931131;29;20054;-73
2021/10/01 04:11:15;;;;;;;11.70;4.10;;;14.40;99.90;;;14.60;70.16;101307.56;4931356;29;20135;-73
2021/10/01 04:13:44;;;;;;;11.82;4.10;;;14.40;99.90;;;14.55;70.60;101317.41;4931269;29;20147;-74
2021/10/01 04:16:12;;;;;;;12.40;4.28;;;14.30;99.90;;;14.60;70.42;101304.91;4931288;29;20199;-74
2021/10/01 04:18:44;;;;;;;8.82;4.50;;;14.40;99.90;;;14.59;70.54;101319.13;4930903;29;20134;-74
2021/10/01 04:21:12;;;;;;;9.77;4.00;;;14.30;99.90;;;14.52;70.63;101313.00;4915324;29;20139;-73
2021/10/01 04:23:42;;;;;;;7.25;4.30;;;14.40;99.90;;;14.58;70.46;101302.28;4915282;29;20064;-73
2021/10/01 04:26:24;;;;;;;9.00;4.55;;;14.30;99.90;;;14.63;70.32;101305.78;4915303;29;20056;-74
2021/10/01 04:28:53;;;;;;;8.98;4.55;;;14.40;99.90;;;14.59;70.20;101314.69;4930856;29;20067;-73
2021/10/01 04:31:22;;;;;;;12.43;4.78;;;14.30;99.90;;;14.51;70.58;101311.25;4916322;29;20075;-74
2021/10/01 04:33:51;;;;;;;7.43;4.10;;;14.30;99.90;;;14.35;71.14;101288.41;4914905;29;20143;-73
2021/10/01 04:36:19;;;;;;;8.75;4.55;;;14.20;99.90;;;14.42;70.89;101300.72;4916366;29;20067;-74
2021/10/01 04:38:49;;;;;;;9.15;4.00;;;14.20;99.90;;;14.38;71.06;101310.53;4914779;29;20150;-74
2021/10/01 04:41:17;;;;;;;12.07;4.40;;;14.20;99.90;;;14.02;70.99;101251.53;4930834;29;20064;-74
2021/10/01 04:43:47;;;;;;;9.60;4.07;;;14.20;99.90;;;14.38;71.37;101312.31;4914711;29;20072;-74
2021/10/01 04:46:16;;;;;;;10.25;4.32;;;14.20;99.90;;;14.31;71.46;101311.50;4916401;29;20052;-73
2021/10/01 04:48:45;;;;;;;11.88;4.32;;;14.10;99.90;;;14.27;71.70;101307.13;4930624;29;20411;-74
2021/10/01 04:51:22;;;;;;;8.02;4.35;;;14.00;99.90;;;14.33;71.60;101314.16;4915067;29;20048;-73
2021/10/01 04:53:52;;;;;;;9.00;4.30;;;14.10;99.90;;;14.25;71.67;101290.25;4914831;29;20048;-73
2021/10/01 04:56:21;;;;;;;9.98;4.22;;;14.00;99.90;;;14.27;71.98;101292.91;4914775;29;20081;-73
2021/10/01 04:58:50;;;;;;;8.00;4.47;;;14.00;99.90;;;14.18;71.96;101280.59;4930702;29;20051;-74
2021/10/01 05:01:38;;;;;;;12.02;4.45;;;14.00;99.90;;;14.25;71.87;101292.03;4916303;29;20063;-74
2021/10/01 05:04:26;;;;;;;7.55;4.30;;;14.00;99.90;;;14.15;72.13;101295.72;4915721;29;20462;-73
2021/10/01 05:07:19;;;;;;;9.50;4.15;;;14.00;99.90;;;14.17;72.21;101300.13;4924035;29;20064;-74
2021/10/01 05:10:09;;;;;;;8.02;4.28;;;13.90;99.90;;;14.20;72.35;101289.44;4916502;29;20158;-73
2021/10/01 05:13:03;;;;;;;5.95;3.78;;;14.00;99.90;;;14.16;72.36;101287.72;4916190;29;20064;-74
2021/10/01 05:15:51;;;;;;;10.52;4.03;;;14.00;99.90;;;14.13;72.48;101292.22;4916842;29;20059;-74
2021/10/01 05:18:42;;;;;;;10.13;4.60;;;13.90;99.90;;;14.26;72.12;101301.78;4923701;29;20056;-73
2021/10/01 05:21:29;;;;;;;9.35;4.80;;;14.00;99.90;;;14.18;72.51;101279.72;4915906;29;20405;-73
2021/10/01 05:24:02;;;;;;;8.80;4.75;;;13.90;99.90;;;14.05;72.83;101284.28;4914719;29;20101;-73
2021/10/01 05:26:32;;;;;;;8.18;3.85;;;13.90;99.90;;;14.07;72.76;101276.31;4914479;29;20048;-73
2021/10/01 05:29:00;;;;;;;8.27;4.38;;;13.90;99.90;;;14.14;72.41;101275.34;4915891;29;20052;-74
2021/10/01 05:31:29;;;;;;;11.45;5.15;;;13.90;99.90;;;14.11;72.56;101278.06;4914810;29;20068;-73
2021/10/01 05:33:58;;;;;;;7.90;4.15;;;13.90;99.90;;;14.09;72.66;101274.53;4915580;29;20054;-73
2021/10/01 05:36:26;;;;;;;8.98;4.05;;;13.90;99.90;;;14.16;72.64;101278.84;4916096;29;20490;-73
2021/10/01 05:38:55;;;;;;;10.93;5.07;;;13.90;99.90;;;14.14;72.74;101283.31;4915441;29;20059;-74
2021/10/01 05:41:24;;;;;;;14.00;4.45;;;13.90;99.90;;;14.15;72.78;101290.41;4914339;29;20058;-73
2021/10/01 05:43:54;;;;;;;8.68;4.10;;;13.90;99.90;;;13.88;72.81;101198.53;4914307;29;20075;-73
2021/10/01 05:46:22;;;;;;;8.30;4.30;;;14.00;99.90;;;14.09;72.66;101248.78;4914297;29;20059;-73
2021/10/01 05:49:13;;;;;;;9.80;4.10;;;14.00;99.90;;;14.10;72.92;101241.69;4915476;29;20078;-73
2021/10/01 05:52:26;;;;;;;8.10;4.93;;;14.00;99.90;;;14.25;72.92;101276.97;4932177;29;20075;-72
2021/10/01 05:55:13;;;;;;;10.10;4.13;;;14.00;99.90;;;14.16;73.03;101257.56;4932655;29;20063;-73
2021/10/01 05:58:00;;;;;;;12.57;4.63;;;14.00;99.90;;;14.12;73.27;101246.09;4918835;29;20115;-73
2021/10/01 06:00:38;;;;;;;8.10;4.10;;;13.90;99.90;;;14.04;73.35;101276.34;4914020;29;20099;-73
2021/10/01 06:03:06;;;;;;;10.43;4.30;;;13.90;99.90;;;14.11;73.34;101268.25;4914175;29;20052;-73
2021/10/01 06:05:35;;;;;;;11.00;4.30;;;13.90;99.90;;;14.17;73.04;101275.28;4915253;29;20113;-73
2021/10/01 06:08:03;;;;;;;9.88;4.05;;;13.90;99.90;;;14.03;72.97;101237.34;4915319;29;20044;-74
2021/10/01 06:10:32;;;;;;;8.52;4.40;;;13.90;99.90;;;14.18;72.89;101253.13;4915205;29;20063;-72
2021/10/01 06:13:00;;;;;;;11.07;5.20;;;14.00;99.90;;;13.98;73.14;101220.56;4915282;29;20055;-74
2021/10/01 06:15:29;;;;;;;7.40;4.53;;;14.00;99.90;;;14.08;73.20;101243.47;4915245;29;20100;-74
2021/10/01 06:17:59;;;;;;;8.30;4.20;;;13.90;99.90;;;13.77;73.12;101181.81;4917628;29;20414;-72
2021/10/01 06:20:27;;;;;;;7.00;4.67;;;13.90;99.90;;;14.24;72.89;101266.34;4918747;29;20055;-73
2021/10/01 06:22:56;;;;;;;11.63;4.60;;;14.00;99.90;;;14.25;72.72;101246.78;4918852;29;20047;-72
2021/10/01 06:25:24;;;;;;;9.38;4.63;;;14.00;99.90;;;14.21;72.70;101259.28;4918710;29;20079;-72
2021/10/01 06:27:53;;;;;;;11.48;4.80;;;14.00;99.90;;;14.26;72.63;101240.59;4918552;29;20443;-73
2021/10/01 06:30:22;;;;;;;8.38;4.25;;;14.00;99.90;;;14.27;72.51;101237.00;4932860;29;20407;-73
2021/10/01 06:32:50;;;;;;;7.68;4.45;;;14.00;99.90;;;14.28;72.46;101241.50;4917401;29;20405;-74
2021/10/01 06:35:20;;;;;;;7.22;4.18;;;14.00;99.90;;;14.22;72.93;101241.53;4918883;29;20048;-72
2021/10/01 06:37:48;;;;;;;9.93;4.32;;;14.00;99.90;;;14.37;72.71;101238.69;4932901;29;20146;-72
2021/10/01 06:40:16;;;;;;;7.55;4.25;;;14.10;99.90;;;14.41;72.78;101253.72;4918416;29;20102;-73
2021/10/01 06:42:48;;;;;;;9.88;4.22;;;14.20;99.90;;;14.43;72.62;101252.81;4918124;29;20114;-73
2021/10/01 06:45:21;;;;;;;8.70;4.03;;;14.20;99.90;;;14.49;72.28;101238.53;4918686;29;20083;-73
2021/10/01 06:48:08;;;;;;;11.07;4.43;;;14.20;99.90;;;14.61;72.16;101259.66;4918234;29;20056;-74
2021/10/01 08:19:35;;;;;;;9.43;4.07;;;14.80;99.90;;;15.17;72.61;101251.66;4894444;29;20163;-81
2021/10/01 08:22:04;;;;;;;9.93;3.63;;;14.80;99.90;;;15.10;72.84;101231.31;4916956;29;20071;-75
2021/10/01 08:24:33;;;;;;;11.50;4.25;;;14.80;99.90;;;15.09;73.13;101240.22;4917047;29;20051;-77
2021/10/01 08:27:04;;;;;;;11.90;3.95;;;14.80;99.90;;;14.98;73.22;101228.84;4916726;29;20040;-71
2021/10/01 08:29:35;;;;;;;9.82;4.07;;;14.80;99.90;;;15.02;73.04;101238.56;4916787;29;20067;-76
2021/10/01 08:32:05;;;;;;;7.30;3.67;;;14.80;99.90;;;14.94;73.36;101219.16;4916692;29;20176;-77
2021/10/01 08:34:38;;;;;;;10.25;3.83;;;14.90;99.90;;;15.13;73.29;101233.94;4916411;29;20040;-73
2021/10/01 08:37:09;;;;;;;10.63;3.72;;;14.90;99.90;;;15.25;73.35;101239.03;4916544;29;20494;-72
2021/10/01 08:39:38;;;;;;;10.27;3.92;;;15.00;99.90;;;15.17;73.13;101241.00;4930090;29;20056;-70
2021/10/01 08:42:10;;;;;;;8.43;4.07;;;15.00;99.90;;;15.28;73.14;101193.69;4931017;29;20052;-72
2021/10/01 08:44:41;;;;;;;8.02;4.43;;;15.10;99.90;;;15.45;72.36;101212.06;4916122;29;20067;-71
2021/10/01 08:47:12;;;;;;;10.30;4.03;;;15.30;99.90;;;15.67;72.29;101204.53;4916353;29;20142;-74
2021/10/01 08:49:41;;;;;;;;;;;15.40;99.90;;;15.67;71.58;101194.75;4931349;29;20410;-74
2021/10/01 08:52:10;;;;;;;10.05;3.95;;;15.50;99.90;;;15.72;71.27;101211.53;4930541;29;19923;-76
2021/10/01 08:54:41;;;;;;;9.43;4.32;;;15.50;99.90;;;15.85;71.57;101230.84;4916252;29;20044;-71
2021/10/01 08:57:10;;;;;;;9.05;4.15;;;15.60;99.90;;;15.99;71.43;101231.41;4930725;29;20059;-74
2021/10/01 08:59:40;;;;;;;10.13;4.55;;;15.60;99.90;;;15.88;71.63;101231.66;4915887;29;20076;-74
2021/10/01 09:02:10;;;;;;;9.75;3.70;;;15.70;99.90;;;15.84;71.23;101224.63;4915851;29;20044;-72
2021/10/01 09:04:39;;;;;;;7.15;4.53;;;15.60;99.90;;;15.88;71.31;101236.09;4915925;29;20442;-73
2021/10/01 09:07:08;;;;;;;8.43;4.20;;;15.60;99.90;;;15.78;72.16;101219.41;4915845;29;20064;-70
2021/10/01 09:09:40;;;;;;;11.07;3.95;;;15.60;99.90;;;15.79;71.48;101222.97;4915708;29;20394;-73
2021/10/01 09:12:09;;;;;;;10.18;4.35;;;15.60;99.90;;;15.91;72.09;101220.91;4915908;29;20059;-70
2021/10/01 09:14:48;;;;;;;12.63;4.07;;;15.60;99.90;;;15.94;71.94;101223.53;4915830;29;20064;-74
2021/10/01 09:17:20;;;;;;;8.40;3.97;;;15.70;99.90;;;15.93;72.41;101220.91;4915739;29;20450;-73
2021/10/01 09:19:50;;;;;;;8.45;3.95;;;15.70;99.90;;;15.97;71.66;101217.22;4915734;29;20052;-74
2021/10/01 09:22:29;;;;;;;11.25;4.30;;;15.70;99.90;;;15.86;72.14;101229.91;4915981;29;20060;-76
2021/10/01 09:25:11;;;;;;;9.50;3.83;;;15.60;99.90;;;15.96;72.54;101228.84;4915887;29;20082;-75
2021/10/01 09:27:43;;;;;;;11.20;3.92;;;15.70;99.90;;;15.81;72.44;101223.81;4915488;29;20060;-74
2021/10/01 09:30:16;;;;;;;8.48;3.97;;;15.70;99.90;;;15.78;72.66;101222.06;4915699;29;20100;-74
2021/10/01 09:33:04;;;;;;;13.82;3.95;;;15.50;99.90;;;15.78;73.05;101248.75;4915585;29;20075;-72
2021/10/01 09:35:34;;;;;;;5.85;3.65;;;15.50;99.90;;;15.56;73.96;101187.88;4915663;29;20062;-75
2021/10/01 09:38:08;;;;;;;11.13;4.28;;;15.40;99.90;;;15.37;74.11;101184.63;4914232;29;20044;-74
2021/10/01 09:40:37;;;;;;;12.15;4.28;;;15.40;99.90;;;15.57;74.36;101202.94;4915291;29;20052;-77
2021/10/01 09:43:06;;;;;;;8.95;4.25;;;15.30;99.90;;;15.46;74.47;101176.50;4915858;29;20047;-76
2021/10/01 09:45:36;;;;;;;9.75;3.97;;;15.40;99.90;;;15.70;74.76;101199.16;4930031;29;20052;-76
2021/10/01 09:48:06;;;;;;;7.65;4.03;;;15.40;99.90;;;15.68;74.77;101191.16;4915520;29;20040;-76
2021/10/01 09:50:36;;;;;;;9.27;4.05;;;15.40;99.90;;;15.74;75.07;101191.03;4915820;29;20052;-75
2021/10/01 09:53:06;;;;;;;9.18;3.85;;;15.50;99.90;;;15.76;75.05;101197.22;4917936;29;20112;-77
2021/10/01 09:55:38;;;;;;;12.18;5.07;;;15.50;99.90;;;15.56;75.70;101195.88;4919247;29;20048;-77
2021/10/01 09:58:08;;;;;;;8.05;4.47;;;15.40;99.90;;;15.64;76.61;101196.59;4919299;29;20059;-74
2021/10/01 10:00:42;;;;;;;10.27;4.53;;;15.40;99.90;;;15.61;76.67;101188.66;4919376;29;20048;-77
2021/10/01 10:03:15;;;;;;;7.93;4.22;;;15.40;99.90;;;15.56;77.87;101211.88;4918974;29;20044;-75
2021/10/01 10:05:59;;;;;;;8.50;4.15;;;15.30;99.90;;;15.46;78.10;101196.94;4917866;29;20076;-74
2021/10/01 10:08:33;;;;;;;10.45;4.40;;;15.20;99.90;;;15.45;78.05;101165.88;4919098;29;20575;-72
2021/10/01 10:11:04;;;;;;;7.07;4.45;;;15.30;99.90;;;15.54;78.00;101187.03;4918882;29;20494;-72
2021/10/01 10:13:46;;;;;;;13.35;4.85;;;15.30;99.90;;;15.68;77.94;101209.81;4918876;29;20055;-74
2021/10/01 10:16:18;;;;;;;8.88;4.57;;;15.40;99.90;;;15.63;77.88;101192.16;4918939;29;20059;-72
2021/10/01 10:18:51;;;;;;;16.50;5.00;;;15.30;99.90;;;15.69;78.07;101197.38;4918786;29;20406;-72
2021/10/01 10:21:20;;;;;;;8.25;4.25;;;15.40;99.90;;;15.64;78.14;101192.13;4918814;29;20052;-73
2021/10/01 10:23:50;;;;;;;10.65;4.75;;;15.40;99.90;;;15.58;78.40;101170.06;4918351;29;20044;-74
2021/10/01 10:26:19;;;;;;;12.32;4.55;;;15.40;99.90;;;15.53;78.96;101190.56;4918499;29;20127;-73
2021/10/01 10:28:48;;;;;;;10.43;4.47;;;15.30;99.90;;;15.49;79.78;101200.44;4918278;29;20072;-74
2021/10/01 10:31:19;;;;;;;9.35;4.25;;;15.30;99.90;;;15.41;80.86;101165.00;4918367;29;20063;-78
2021/10/01 10:33:50;;;;;;;12.40;5.15;;;15.30;99.90;;;15.46;81.27;101184.50;4918563;29;20127;-75
2021/10/01 10:36:41;;;;;;;8.45;4.30;;;15.20;99.90;;;15.45;81.42;101177.41;4916924;29;20048;-74
2021/10/01 10:39:50;;;;;;;15.63;4.68;;;15.20;99.90;;;15.47;81.76;101175.59;4914619;29;20075;-73
2021/10/01 10:42:24;;;;;;;10.35;4.57;;;15.20;99.90;;;15.51;81.96;101173.72;4918032;29;20056;-75
2021/10/01 10:44:56;;;;;;;14.55;5.13;;;15.20;99.90;;;15.60;82.17;101162.91;4916499;29;20465;-74
2021/10/01 10:47:58;;;;;;;9.52;4.00;;;15.30;99.90;;;15.63;81.79;101170.81;4918056;29;20040;-73
2021/10/01 10:50:45;;;;;;;9.50;4.00;;;15.30;99.90;;;15.61;81.52;101161.97;4859757;29;20061;-73
2021/10/01 10:53:28;;;;;;;10.93;4.53;;;15.40;99.90;;;15.63;82.17;101157.50;4914088;29;20509;-79
2021/10/01 10:56:07;;;;;;;9.23;4.38;;;15.40;99.90;;;15.58;81.98;101154.91;4918301;29;20056;-79
2021/10/01 10:58:52;;;;;;;11.27;4.65;;;15.30;99.90;;;15.60;82.20;101145.09;4918293;29;20044;-80
2021/10/01 11:01:40;;;;;;;11.77;4.75;;;15.30;99.90;;;15.42;82.27;101152.59;4917113;29;20363;-80
2021/10/01 11:04:36;;;;;;;14.82;5.25;;;15.20;99.90;;;15.59;82.88;101154.03;4917538;29;20371;-73
2021/10/01 11:07:06;;;;;;;11.10;4.75;;;15.30;99.90;;;15.58;83.00;101165.56;4918261;29;20052;-79
2021/10/01 11:09:38;;;;;;;13.20;5.15;;;15.30;99.90;;;15.63;83.19;101154.81;4918406;29;20044;-73
2021/10/01 11:12:28;;;;;;;10.57;4.65;;;15.40;99.90;;;15.65;82.92;101164.56;4918014;29;20044;-74
2021/10/01 11:15:19;;;;;;;10.35;4.15;;;15.40;99.90;;;15.69;83.20;101158.25;4918118;29;20055;-73
2021/10/01 11:18:18;;;;;;;9.05;5.18;;;15.40;99.90;;;15.73;83.39;101135.06;4918398;29;20056;-75
2021/10/01 11:20:48;;;;;;;9.20;4.05;;;15.50;99.90;;;15.82;83.58;101148.19;4917958;29;20469;-73
2021/10/01 11:23:20;;;;;;;7.30;4.40;;;15.50;99.90;;;15.91;83.42;101143.53;4918176;29;20050;-73
2021/10/01 11:25:50;;;;;;;12.80;4.85;;;15.60;99.90;;;15.95;83.23;101142.56;4932702;29;20740;-73
2021/10/01 11:28:31;;;;;;;7.95;4.53;;;15.70;99.90;;;15.94;83.09;101126.59;4916488;29;20465;-76
2021/10/01 11:31:00;;;;;;;10.15;4.53;;;15.70;99.90;;;15.96;83.58;101122.09;4917959;29;20048;-79
2021/10/01 11:33:28;;;;;;;10.40;4.60;;;15.70;99.90;;;16.01;82.92;101139.75;4917505;29;20054;-75
2021/10/01 11:35:58;;;;;;;12.48;4.68;;;15.80;99.90;;;15.98;82.31;101169.19;4932019;29;20115;-80
2021/10/01 11:38:33;;;;;;;8.52;4.45;;;15.80;99.90;;;15.88;82.40;101143.63;4916177;29;20146;-76
2021/10/01 11:41:21;;;;;;;12.80;4.47;;;15.70;99.90;;;16.00;82.18;101132.69;4917194;29;20056;-78
2021/10/01 11:43:53;;;;;;;11.57;4.68;;;15.80;99.90;;;15.95;82.28;101117.69;4917624;29;20106;-77
2021/10/01 11:46:34;;;;;;;11.10;4.45;;;15.80;99.90;;;16.14;81.74;101137.72;4917310;29;20056;-78
2021/10/01 11:49:08;;;;;;;12.77;4.95;;;15.90;99.90;;;16.27;82.28;101134.72;4917169;29;20048;-70
2021/10/01 11:51:38;;;;;;;6.80;4.25;;;16.00;99.90;;;16.26;81.62;101130.28;4915674;29;20109;-72
2021/10/01 11:54:12;;;;;;;10.77;4.73;;;16.00;99.90;;;16.40;81.69;101121.06;4917808;29;20067;-72
2021/10/01 11:56:55;;;;;;;13.73;4.82;;;16.10;99.90;;;16.44;81.13;101123.63;4915914;29;20292;-71
2021/10/01 11:59:25;;;;;;;8.07;3.92;;;16.10;99.90;;;16.56;81.45;101115.34;4917322;29;20413;-72
2021/10/01 12:01:58;;;;;;;7.35;3.72;;;16.30;99.90;;;16.58;80.44;101128.66;4916918;29;20120;-72
2021/10/01 12:04:33;;;;;;;19.27;5.00;;;16.30;99.90;;;16.68;80.34;101120.41;4916996;29;20091;-71